createdAt,value
2023-04-08T00:02:02.684Z,5.20
2023-04-08T00:04:49.131Z,4.77
2023-04-08T00:07:36.096Z,5.17
2023-04-08T00:10:25.001Z,5.60
2023-04-08T00:13:11.769Z,4.90
2023-04-08T00:15:58.561Z,5.13
2023-04-08T00:18:45.249Z,5.47
2023-04-08T00:21:31.847Z,5.33
2023-04-08T00:24:18.315Z,5.10
2023-04-08T00:27:06.511Z,5.53
2023-04-08T00:29:53.147Z,4.80
2023-04-08T00:32:39.744Z,4.77
2023-04-08T00:35:26.700Z,4.50
2023-04-08T00:38:13.422Z,5.20
2023-04-08T00:40:59.965Z,4.40
2023-04-08T00:43:49.026Z,4.57
2023-04-08T00:46:39.561Z,5.20
2023-04-08T00:49:31.699Z,4.73
2023-04-08T00:52:18.560Z,4.60
2023-04-08T00:55:06.160Z,5.07
2023-04-08T00:57:52.747Z,4.60
2023-04-08T01:00:44.787Z,5.07
2023-04-08T01:03:40.481Z,5.07
2023-04-08T01:06:33.406Z,5.00
2023-04-08T01:09:22.248Z,4.50
2023-04-08T01:12:13.760Z,4.77
2023-04-08T01:15:04.324Z,4.23
2023-04-08T01:17:56.217Z,4.97
2023-04-08T01:20:48.478Z,4.97
2023-04-08T01:23:44.216Z,4.63
2023-04-08T01:26:32.538Z,5.00
2023-04-08T01:29:20.535Z,4.83
2023-04-08T01:32:08.540Z,5.13
2023-04-08T01:34:56.378Z,5.20
2023-04-08T01:37:44.274Z,4.83
2023-04-08T01:40:31.615Z,4.90
2023-04-08T01:43:20.787Z,5.40
2023-04-08T01:46:09.582Z,5.60
2023-04-08T01:48:56.820Z,5.30
2023-04-08T01:51:45.386Z,5.67
2023-04-08T01:54:32.332Z,5.27
2023-04-08T01:57:24.117Z,6.10
2023-04-08T02:00:14.657Z,6.17
2023-04-08T02:03:02.093Z,5.87
2023-04-08T02:05:48.811Z,5.70
2023-04-08T02:08:36.391Z,6.00
2023-04-08T02:11:23.176Z,5.97
2023-04-08T02:14:10.959Z,5.30
2023-04-08T02:17:09.885Z,6.10
2023-04-08T02:20:02.341Z,4.90
2023-04-08T02:22:54.089Z,4.80
2023-04-08T02:25:45.458Z,4.73
2023-04-08T02:28:34.632Z,5.20
2023-04-08T02:31:22.490Z,5.10
2023-04-08T02:34:12.194Z,5.57
2023-04-08T02:37:00.977Z,4.87
2023-04-08T02:39:47.740Z,5.00
2023-04-08T02:42:34.145Z,4.93
2023-04-08T02:45:21.259Z,5.07
2023-04-08T02:48:08.423Z,4.10
2023-04-08T02:50:57.201Z,4.00
2023-04-08T02:53:43.933Z,5.17
2023-04-08T02:56:30.657Z,4.33
2023-04-08T02:59:17.019Z,4.20
2023-04-08T03:02:03.427Z,4.73
2023-04-08T03:04:50.348Z,4.80
2023-04-08T03:07:38.428Z,4.60
2023-04-08T03:10:25.277Z,5.63
2023-04-08T03:13:11.922Z,4.80
2023-04-08T03:15:58.319Z,4.70
2023-04-08T03:18:44.731Z,5.40
2023-04-08T03:21:32.293Z,5.90
2023-04-08T03:24:20.174Z,5.93
2023-04-08T03:27:08.312Z,5.87
2023-04-08T03:29:55.030Z,5.57
2023-04-08T03:32:41.626Z,6.23
2023-04-08T03:35:28.426Z,6.63
2023-04-08T03:38:15.145Z,6.53
2023-04-08T03:41:03.344Z,6.67
2023-04-08T03:43:49.808Z,7.07
2023-04-08T03:46:36.248Z,6.23
2023-04-08T03:49:22.866Z,7.00
2023-04-08T03:52:09.332Z,7.40
2023-04-08T03:54:56.017Z,7.20
2023-04-08T03:57:45.458Z,7.07
2023-04-08T04:00:32.461Z,7.30
2023-04-08T04:03:19.752Z,7.73
2023-04-08T04:06:06.868Z,7.67
2023-04-08T04:08:55.347Z,7.27
2023-04-08T04:11:41.989Z,7.43
2023-04-08T04:14:29.926Z,7.63
2023-04-08T04:17:16.713Z,7.87
2023-04-08T04:20:05.433Z,8.43
2023-04-08T04:22:55.075Z,6.80
2023-04-08T04:25:42.810Z,7.40
2023-04-08T04:28:29.581Z,7.17
2023-04-08T04:31:26.372Z,6.97
2023-04-08T04:34:13.040Z,8.00
2023-04-08T04:36:59.444Z,7.23
2023-04-08T04:39:46.001Z,7.10
2023-04-08T04:42:33.018Z,6.90
2023-04-08T04:45:19.986Z,6.63
2023-04-08T04:48:08.134Z,6.63
2023-04-08T04:50:58.679Z,6.63
2023-04-08T04:53:45.341Z,6.27
2023-04-08T04:56:31.880Z,6.70
2023-04-08T04:59:18.420Z,6.80
2023-04-08T05:02:05.081Z,6.40
2023-04-08T05:04:55.731Z,5.50
2023-04-08T05:07:42.142Z,6.23
2023-04-08T05:10:28.537Z,5.87
2023-04-08T05:13:15.156Z,6.30
2023-04-08T05:16:01.967Z,5.93
2023-04-08T05:18:48.453Z,6.00
2023-04-08T05:21:36.664Z,6.30
2023-04-08T05:24:23.617Z,5.83
2023-04-08T05:27:11.164Z,5.40
2023-04-08T05:29:57.948Z,5.60
2023-04-08T05:32:44.344Z,5.67
2023-04-08T05:35:30.623Z,6.40
2023-04-08T05:38:18.536Z,6.23
2023-04-08T05:41:05.411Z,6.10
2023-04-08T05:43:51.695Z,6.97
2023-04-08T05:46:38.948Z,7.70
2023-04-08T05:49:25.836Z,6.10
2023-04-08T05:52:12.254Z,6.43
2023-04-08T05:54:59.852Z,6.90
2023-04-08T05:57:46.359Z,6.80
2023-04-08T06:00:32.895Z,6.77
2023-04-08T06:03:21.010Z,6.10
2023-04-08T06:06:12.302Z,6.70
2023-04-08T06:08:58.813Z,6.07
2023-04-08T06:11:47.201Z,6.63
2023-04-08T06:14:33.890Z,6.17
2023-04-08T06:17:20.177Z,6.83
2023-04-08T06:20:09.234Z,7.20
2023-04-08T06:22:55.989Z,6.13
2023-04-08T06:25:42.494Z,6.27
2023-04-08T06:28:31.799Z,6.70
2023-04-08T06:31:18.242Z,6.90
2023-04-08T06:34:04.542Z,7.07
2023-04-08T06:36:51.342Z,7.23
2023-04-08T06:39:38.106Z,6.23
2023-04-08T06:42:24.395Z,7.73
2023-04-08T06:45:12.783Z,6.73
2023-04-08T06:47:59.615Z,7.20
2023-04-08T06:50:46.339Z,6.27
2023-04-08T06:53:33.663Z,6.43
2023-04-08T06:56:21.376Z,6.17
2023-04-08T06:59:08.008Z,5.47
2023-04-08T07:01:55.814Z,6.43
2023-04-08T07:04:44.267Z,6.17
2023-04-08T07:07:32.409Z,5.93
2023-04-08T07:10:19.149Z,6.13
2023-04-08T07:13:05.584Z,6.53
2023-04-08T07:15:52.562Z,5.50
2023-04-08T07:18:41.415Z,5.30
2023-04-08T07:21:27.724Z,5.47
2023-04-08T07:24:14.182Z,5.03
2023-04-08T07:27:00.653Z,5.53
2023-04-08T07:29:53.241Z,5.60
2023-04-08T07:32:39.978Z,5.43
2023-04-08T07:35:27.813Z,5.27
2023-04-08T07:38:14.823Z,5.27
2023-04-08T07:41:01.623Z,5.63
2023-04-08T07:43:48.214Z,5.97
2023-04-08T07:46:38.555Z,5.70
2023-04-08T07:49:25.557Z,6.93
2023-04-08T07:52:13.191Z,6.77
2023-04-08T07:54:59.664Z,6.03
2023-04-08T07:57:46.078Z,6.60
2023-04-08T08:00:33.357Z,6.73
2023-04-08T08:03:20.330Z,8.23
2023-04-08T08:06:07.077Z,7.87
2023-04-08T08:08:55.127Z,8.17
2023-04-08T08:11:41.800Z,8.50
2023-04-08T08:14:28.929Z,8.80
2023-04-08T08:17:15.636Z,9.30
2023-04-08T08:20:02.278Z,8.90
2023-04-08T08:22:57.326Z,9.53
2023-04-08T08:25:45.447Z,10.03
2023-04-08T08:28:31.956Z,11.10
2023-04-08T08:31:18.221Z,11.77
2023-04-08T08:34:04.598Z,11.07
2023-04-08T08:36:51.261Z,11.83
2023-04-08T08:39:39.262Z,11.67
2023-04-08T08:42:27.510Z,12.67
2023-04-08T08:45:14.870Z,12.77
2023-04-08T08:48:01.482Z,13.77
2023-04-08T08:50:48.430Z,13.03
2023-04-08T08:53:35.993Z,12.40
2023-04-08T08:56:23.099Z,14.07
2023-04-08T08:59:10.803Z,14.33
2023-04-08T09:01:57.577Z,15.83
2023-04-08T09:04:58.585Z,14.87
2023-04-08T09:07:45.516Z,15.67
2023-04-08T09:10:32.173Z,15.20
2023-04-08T09:13:18.715Z,15.93
2023-04-08T09:16:09.120Z,17.37
2023-04-08T09:18:55.868Z,15.07
2023-04-08T09:21:42.590Z,16.90
2023-04-08T09:24:30.741Z,18.37
2023-04-08T09:27:17.334Z,17.40
2023-04-08T09:30:23.185Z,16.93
2023-04-08T09:33:11.696Z,17.63
2023-04-08T09:35:58.425Z,17.57
2023-04-08T09:38:45.558Z,18.27
2023-04-08T09:41:35.611Z,17.73
2023-04-08T09:44:27.641Z,17.73
2023-04-08T09:47:20.687Z,17.67
2023-04-08T09:50:10.674Z,17.37
2023-04-08T09:53:02.954Z,17.13
2023-04-08T09:55:54.093Z,18.90
2023-04-08T09:58:43.594Z,20.53
2023-04-08T10:01:38.621Z,20.40
2023-04-08T10:04:29.375Z,17.73
2023-04-08T10:07:17.503Z,17.67
2023-04-08T10:10:04.854Z,16.60
2023-04-08T10:12:52.190Z,16.27
2023-04-08T10:15:40.884Z,14.50
2023-04-08T10:18:34.410Z,16.03
2023-04-08T10:21:39.558Z,15.57
2023-04-08T10:24:27.487Z,16.43
2023-04-08T10:27:41.851Z,16.63
2023-04-08T10:30:42.030Z,16.13
2023-04-08T10:33:39.179Z,17.40
2023-04-08T10:36:28.040Z,16.63
2023-04-08T10:39:15.840Z,16.13
2023-04-08T10:42:04.406Z,17.20
2023-04-08T10:44:51.371Z,14.67
2023-04-08T10:47:37.908Z,16.30
2023-04-08T10:50:24.790Z,16.00
2023-04-08T10:53:12.284Z,15.43
2023-04-08T10:56:06.201Z,16.33
2023-04-08T10:58:56.140Z,15.63
2023-04-08T11:01:44.977Z,14.07
2023-04-08T11:04:31.952Z,14.47
2023-04-08T11:07:21.683Z,15.03
2023-04-08T11:10:09.406Z,14.50
2023-04-08T11:12:56.716Z,15.67
2023-04-08T11:15:44.581Z,14.43
2023-04-08T11:18:32.243Z,15.10
2023-04-08T11:21:18.857Z,13.67
2023-04-08T11:24:11.915Z,13.77
2023-04-08T11:26:59.372Z,14.47
2023-04-08T11:29:46.186Z,13.57
2023-04-08T11:32:35.250Z,14.50
2023-04-08T11:35:21.846Z,15.43
2023-04-08T11:38:09.649Z,14.37
2023-04-08T11:40:56.598Z,14.30
2023-04-08T11:43:53.150Z,12.67
2023-04-08T11:46:40.933Z,13.67
2023-04-08T11:49:29.592Z,13.50
2023-04-08T11:52:16.254Z,13.07
2023-04-08T11:55:02.651Z,12.27
2023-04-08T11:57:49.159Z,13.43
2023-04-08T12:00:35.573Z,13.87
2023-04-08T12:03:22.056Z,13.13
2023-04-08T12:06:10.222Z,12.00
2023-04-08T12:08:57.653Z,12.30
2023-04-08T12:11:44.352Z,13.27
2023-04-08T12:14:30.972Z,14.17
2023-04-08T12:17:17.554Z,13.00
2023-04-08T12:20:04.299Z,13.07
2023-04-08T12:22:52.245Z,12.47
2023-04-08T12:25:38.598Z,12.27
2023-04-08T12:28:25.042Z,11.97
2023-04-08T12:31:11.561Z,12.53
2023-04-08T12:33:57.810Z,11.70
2023-04-08T12:36:44.790Z,11.87
2023-04-08T12:39:32.833Z,11.07
2023-04-08T12:42:19.196Z,11.20
2023-04-08T12:45:08.250Z,11.87
2023-04-08T12:47:55.119Z,11.77
2023-04-08T12:50:41.516Z,12.13
2023-04-08T12:53:27.807Z,11.73
2023-04-08T12:56:15.735Z,12.80
2023-04-08T12:59:02.559Z,12.23
2023-04-08T13:01:49.184Z,13.17
2023-04-08T13:04:35.627Z,12.93
2023-04-08T13:07:22.042Z,12.77
2023-04-08T13:10:09.915Z,14.83
2023-04-08T13:12:58.318Z,12.67
2023-04-08T13:15:44.765Z,10.87
2023-04-08T13:18:31.177Z,12.37
2023-04-08T13:21:20.117Z,12.00
2023-04-08T13:24:07.211Z,12.10
2023-04-08T13:26:53.903Z,12.60
2023-04-08T13:29:41.585Z,12.77
2023-04-08T13:32:28.106Z,12.13
2023-04-08T13:35:14.547Z,12.33
2023-04-08T13:38:01.148Z,12.43
2023-04-08T13:40:49.182Z,13.17
2023-04-08T13:43:35.978Z,13.97
2023-04-08T13:46:23.716Z,13.20
2023-04-08T13:49:10.966Z,14.33
2023-04-08T13:51:57.561Z,13.20
2023-04-08T13:54:44.023Z,13.77
2023-04-08T13:57:30.630Z,13.80
2023-04-08T14:00:17.406Z,14.13
2023-04-08T14:03:05.218Z,13.60
2023-04-08T14:05:52.345Z,13.30
2023-04-08T14:08:38.798Z,14.17
2023-04-08T14:11:26.074Z,14.23
2023-04-08T14:14:15.680Z,13.97
2023-04-08T14:17:02.573Z,15.10
2023-04-08T14:19:51.022Z,15.60
2023-04-08T14:22:37.720Z,14.37
2023-04-08T14:25:24.067Z,14.77
2023-04-08T14:28:10.523Z,15.00
2023-04-08T14:30:57.086Z,15.83
2023-04-08T14:33:43.915Z,15.03
2023-04-08T14:36:32.854Z,15.63
2023-04-08T14:39:19.796Z,14.83
2023-04-08T14:42:06.134Z,15.40
2023-04-08T14:44:52.523Z,15.13
2023-04-08T14:47:39.013Z,15.23
2023-04-08T14:50:25.792Z,15.10
2023-04-08T14:53:13.324Z,14.97
2023-04-08T14:55:59.724Z,15.33
2023-04-08T14:58:46.054Z,14.73
2023-04-08T15:01:33.603Z,14.10
2023-04-08T15:04:20.482Z,15.13
2023-04-08T15:07:07.521Z,14.40
2023-04-08T15:09:56.400Z,16.30
2023-04-08T15:12:42.781Z,14.77
2023-04-08T15:15:29.322Z,14.90
2023-04-08T15:18:15.923Z,14.53
2023-04-08T15:21:02.471Z,14.30
2023-04-08T15:23:48.890Z,12.57
2023-04-08T15:26:36.617Z,12.67
2023-04-08T15:29:24.590Z,11.07
2023-04-08T15:32:10.905Z,10.10
2023-04-08T15:34:57.298Z,10.47
2023-04-08T15:37:43.683Z,10.73
2023-04-08T15:40:32.159Z,10.80
2023-04-08T15:43:19.852Z,11.23
2023-04-08T15:46:06.484Z,11.30
2023-04-08T15:48:53.194Z,10.27
2023-04-08T15:51:44.252Z,9.77
2023-04-08T15:54:31.944Z,9.67
2023-04-08T15:57:18.261Z,9.50
2023-04-08T16:00:10.430Z,10.10
2023-04-08T16:02:57.060Z,10.40
2023-04-08T16:05:43.717Z,9.87
2023-04-08T16:08:30.567Z,10.37
2023-04-08T16:11:17.719Z,10.57
2023-04-08T16:14:05.042Z,10.47
2023-04-08T16:16:52.701Z,11.13
2023-04-08T16:19:39.377Z,10.90
2023-04-08T16:22:26.359Z,10.10
2023-04-08T16:25:12.740Z,10.40
2023-04-08T16:27:59.281Z,10.53
2023-04-08T16:30:47.747Z,9.60
2023-04-08T16:33:36.574Z,10.67
2023-04-08T16:36:22.979Z,10.57
2023-04-08T16:39:09.493Z,11.33
2023-04-08T16:41:58.666Z,11.13
2023-04-08T16:44:45.491Z,11.97
2023-04-08T16:47:32.323Z,11.13
2023-04-08T16:50:20.608Z,11.10
2023-04-08T16:53:07.291Z,11.17
2023-04-08T16:55:54.190Z,11.80
2023-04-08T16:58:40.939Z,11.27
2023-04-08T17:01:27.719Z,11.83
2023-04-08T17:04:14.331Z,12.80
2023-04-08T17:07:03.298Z,13.30
2023-04-08T17:09:52.330Z,13.87
2023-04-08T17:12:38.633Z,13.97
2023-04-08T17:15:25.662Z,16.17
2023-04-08T17:18:12.486Z,16.50
2023-04-08T17:20:59.049Z,15.00
2023-04-08T17:23:46.932Z,14.27
2023-04-08T17:26:33.876Z,14.97
2023-04-08T17:29:20.633Z,16.60
2023-04-08T17:32:07.589Z,16.93
2023-04-08T17:34:54.344Z,18.13
2023-04-08T17:37:40.897Z,17.07
2023-04-08T17:40:28.874Z,17.03
2023-04-08T17:43:15.609Z,16.93
2023-04-08T17:46:02.325Z,22.97
2023-04-08T17:48:49.154Z,18.87
2023-04-08T17:51:35.434Z,16.90
2023-04-08T17:54:21.990Z,16.70
2023-04-08T17:57:10.025Z,14.30
2023-04-08T17:59:56.575Z,14.03
2023-04-08T18:02:43.346Z,17.10
2023-04-08T18:05:30.740Z,16.90
2023-04-08T18:08:17.150Z,16.47
2023-04-08T18:11:06.231Z,15.63
2023-04-08T18:13:54.507Z,16.20
2023-04-08T18:16:41.294Z,17.33
2023-04-08T18:19:27.968Z,14.97
2023-04-08T18:22:14.640Z,13.70
2023-04-08T18:25:01.021Z,14.07
2023-04-08T18:27:47.271Z,15.10
2023-04-08T18:30:35.302Z,14.50
2023-04-08T18:33:21.955Z,14.70
2023-04-08T18:36:09.968Z,13.93
2023-04-08T18:38:57.175Z,13.83
2023-04-08T18:41:43.999Z,13.50
2023-04-08T18:44:30.509Z,14.17
2023-04-08T18:47:18.766Z,13.90
2023-04-08T18:50:06.502Z,13.03
2023-04-08T18:52:52.988Z,14.00
2023-04-08T18:55:39.625Z,14.27
2023-04-08T18:58:27.391Z,13.70
2023-04-08T19:01:16.230Z,13.70
2023-04-08T19:04:04.105Z,14.20
2023-04-08T19:06:51.462Z,13.33
2023-04-08T19:09:38.126Z,13.17
2023-04-08T19:12:24.671Z,13.97
2023-04-08T19:15:11.621Z,14.80
2023-04-08T19:17:59.118Z,14.80
2023-04-08T19:20:47.497Z,14.20
2023-04-08T19:23:34.022Z,15.17
2023-04-08T19:26:20.529Z,14.17
2023-04-08T19:29:11.822Z,15.60
2023-04-08T19:31:59.291Z,13.67
2023-04-08T19:34:45.797Z,15.30
2023-04-08T19:37:33.970Z,14.33
2023-04-08T19:40:20.780Z,15.20
2023-04-08T19:43:07.323Z,15.00
2023-04-08T19:45:54.619Z,14.47
2023-04-08T19:48:41.121Z,15.37
2023-04-08T19:51:31.038Z,15.90
2023-04-08T19:54:19.151Z,14.30
2023-04-08T19:57:08.780Z,15.03
2023-04-08T19:59:55.972Z,16.00
2023-04-08T20:02:42.733Z,18.03
2023-04-08T20:05:29.411Z,16.70
2023-04-08T20:08:15.828Z,16.87
2023-04-08T20:11:04.785Z,19.60
2023-04-08T20:13:51.716Z,18.00
2023-04-08T20:16:38.370Z,18.43
2023-04-08T20:19:25.009Z,19.13
2023-04-08T20:22:11.568Z,21.60
2023-04-08T20:25:01.285Z,19.30
2023-04-08T20:27:49.271Z,17.97
2023-04-08T20:30:35.830Z,17.60
2023-04-08T20:33:22.108Z,20.27
2023-04-08T20:36:08.594Z,20.00
2023-04-08T20:38:57.015Z,21.07
2023-04-08T20:41:44.401Z,20.60
2023-04-08T20:44:32.231Z,20.17
2023-04-08T20:47:18.541Z,20.33
2023-04-08T20:50:07.358Z,19.30
2023-04-08T20:52:54.025Z,19.20
2023-04-08T20:55:40.499Z,20.47
2023-04-08T20:58:27.060Z,19.47
2023-04-08T21:01:14.817Z,20.93
2023-04-08T21:04:02.946Z,21.00
2023-04-08T21:06:49.904Z,19.07
2023-04-08T21:09:36.817Z,20.53
2023-04-08T21:12:23.316Z,21.83
2023-04-08T21:15:10.705Z,20.20
2023-04-08T21:17:58.706Z,20.07
2023-04-08T21:20:45.323Z,23.07
2023-04-08T21:23:31.673Z,22.77
2023-04-08T21:26:18.214Z,20.73
2023-04-08T21:29:04.566Z,21.57
2023-04-08T21:31:51.169Z,23.00
2023-04-08T21:34:38.807Z,21.80
2023-04-08T21:37:25.140Z,21.47
2023-04-08T21:40:14.737Z,20.57
2023-04-08T21:43:01.256Z,19.47
2023-04-08T21:45:47.742Z,18.90
2023-04-08T21:48:34.182Z,19.40
2023-04-08T21:51:24.451Z,19.63
2023-04-08T21:54:13.554Z,18.40
2023-04-08T21:57:01.332Z,19.50
2023-04-08T21:59:47.903Z,19.17
2023-04-08T22:02:40.655Z,20.33
2023-04-08T22:05:27.560Z,19.40
2023-04-08T22:08:16.166Z,20.63
2023-04-08T22:11:03.000Z,18.70
2023-04-08T22:13:49.629Z,18.73
2023-04-08T22:16:36.653Z,18.70
2023-04-08T22:19:23.651Z,18.73
2023-04-08T22:22:10.295Z,18.50
2023-04-08T22:24:58.115Z,18.63
2023-04-08T22:27:44.745Z,18.60
2023-04-08T22:30:31.685Z,18.80
2023-04-08T22:33:18.406Z,19.23
2023-04-08T22:36:05.806Z,19.67
2023-04-08T22:38:52.385Z,19.13
2023-04-08T22:41:40.599Z,19.37
2023-04-08T22:44:27.348Z,19.87
2023-04-08T22:47:13.628Z,19.20
2023-04-08T22:50:00.050Z,18.83
2023-04-08T22:52:46.767Z,18.47
2023-04-08T22:55:33.452Z,19.87
2023-04-08T22:58:21.105Z,19.13
2023-04-08T23:01:12.643Z,19.77
2023-04-08T23:03:59.038Z,19.63
2023-04-08T23:06:45.482Z,19.00
2023-04-08T23:09:32.464Z,18.47
2023-04-08T23:12:18.827Z,19.17
2023-04-08T23:15:07.757Z,19.20
2023-04-08T23:17:54.192Z,19.70
2023-04-08T23:20:40.748Z,19.07
2023-04-08T23:23:27.166Z,20.03
2023-04-08T23:26:18.305Z,18.20
2023-04-08T23:29:04.786Z,19.50
2023-04-08T23:31:52.596Z,19.30
2023-04-08T23:34:38.902Z,20.23
2023-04-08T23:37:25.910Z,18.37
2023-04-08T23:40:12.924Z,18.63
2023-04-08T23:42:59.401Z,19.70
2023-04-08T23:45:45.814Z,18.67
2023-04-08T23:48:33.660Z,18.77
2023-04-08T23:51:20.603Z,19.60
2023-04-08T23:54:07.042Z,18.50
2023-04-08T23:56:53.545Z,20.00
2023-04-08T23:59:40.961Z,19.53
